Time,TemperatureF,DewpointF,PressureIn,WindDirection,WindDirectionDegrees,WindSpeedMPH,WindSpeedGustMPH,Humidity,HourlyPrecipIn,Conditions,Clouds,dailyrainin,SoftwareType,DateUTC
2013-07-10 00:01:00,70.7,11.5,29.94,NW,315,0.0,0.0,1,0.00,,,0.00,WUHU216HW,2013-07-10 04:01:00,
2013-07-10 00:06:00,70.6,11.3,29.94,NW,315,0.0,0.0,1,0.00,,,0.00,WUHU216HW,2013-07-10 04:06:00,
2013-07-10 00:11:00,70.6,11.3,29.94,NW,315,0.0,0.0,1,0.00,,,0.00,WUHU216HW,2013-07-10 04:11:00,
2013-07-10 00:16:00,70.4,11.3,29.94,NW,315,0.0,0.0,1,0.00,,,0.00,WUHU216HW,2013-07-10 04:16:00,
2013-07-10 00:21:00,70.6,11.3,29.94,NW,315,0.0,0.0,1,0.00,,,0.00,WUHU216HW,2013-07-10 04:21:00,
2013-07-10 00:26:00,70.4,11.3,29.94,NW,315,0.0,0.0,1,0.00,,,0.00,WUHU216HW,2013-07-10 04:26:00,
2013-07-10 00:31:00,70.4,11.3,29.94,NW,315,0.0,0.0,1,0.00,,,0.00,WUHU216HW,2013-07-10 04:31:00,
2013-07-10 00:36:00,70.6,11.3,29.93,NW,315,0.0,0.0,1,0.00,,,0.00,WUHU216HW,2013-07-10 04:36:00,
2013-07-10 00:41:00,70.6,11.3,29.94,NW,315,0.0,0.0,1,0.00,,,0.00,WUHU216HW,2013-07-10 04:41:00,
2013-07-10 00:46:00,70.6,11.3,29.94,NW,315,0.0,0.0,1,0.00,,,0.00,WUHU216HW,2013-07-10 04:46:00,
2013-07-10 00:51:00,70.6,11.3,29.93,NW,315,0.0,0.0,1,0.00,,,0.00,WUHU216HW,2013-07-10 04:51:00,
2013-07-10 00:56:00,70.6,11.3,29.94,NW,315,0.0,0.0,1,0.00,,,0.00,WUHU216HW,2013-07-10 04:56:00,
2013-07-10 01:01:00,70.6,11.3,29.93,NW,315,0.0,0.0,1,0.00,,,0.00,WUHU216HW,2013-07-10 05:01:00,
2013-07-10 01:07:00,70.6,11.3,29.93,NW,315,0.0,0.0,1,0.00,,,0.00,WUHU216HW,2013-07-10 05:07:00,
2013-07-10 01:12:00,70.6,11.3,29.93,NW,315,0.0,0.0,1,0.00,,,0.00,WUHU216HW,2013-07-10 05:12:00,
2013-07-10 01:17:00,70.6,11.3,29.93,NW,315,0.0,0.0,1,0.00,,,0.00,WUHU216HW,2013-07-10 05:17:00,
2013-07-10 01:22:00,70.6,11.3,29.93,NW,315,0.0,0.0,1,0.00,,,0.00,WUHU216HW,2013-07-10 05:22:00,
2013-07-10 01:27:00,70.6,11.3,29.93,NW,315,0.0,0.0,1,0.00,,,0.00,WUHU216HW,2013-07-10 05:27:00,
2013-07-10 01:32:00,70.6,11.3,29.93,NW,315,0.0,0.0,1,0.00,,,0.00,WUHU216HW,2013-07-10 05:32:00,
2013-07-10 01:37:00,70.6,11.3,29.92,NW,315,0.0,0.0,1,0.00,,,0.00,WUHU216HW,2013-07-10 05:37:00,
2013-07-10 01:42:00,70.4,11.3,29.92,NW,315,0.0,0.0,1,0.00,,,0.00,WUHU216HW,2013-07-10 05:42:00,
2013-07-10 01:47:00,70.4,11.3,29.93,NW,315,0.0,0.0,1,0.00,,,0.00,WUHU216HW,2013-07-10 05:47:00,
2013-07-10 01:52:00,70.2,11.1,29.92,NW,315,0.0,0.0,1,0.00,,,0.00,WUHU216HW,2013-07-10 05:52:00,
2013-07-10 01:57:00,70.2,11.1,29.92,NW,315,0.0,0.0,1,0.00,,,0.00,WUHU216HW,2013-07-10 05:57:00,
2013-07-10 02:02:00,70.0,11.0,29.92,NW,315,0.0,0.0,1,0.00,,,0.00,WUHU216HW,2013-07-10 06:02:00,
2013-07-10 02:07:00,70.0,11.0,29.92,NW,315,0.0,0.0,1,0.00,,,0.00,WUHU216HW,2013-07-10 06:07:00,
2013-07-10 02:12:00,70.0,11.0,29.92,NW,315,0.0,0.0,1,0.00,,,0.00,WUHU216HW,2013-07-10 06:12:00,
2013-07-10 02:17:00,70.0,11.0,29.91,NW,315,0.0,0.0,1,0.00,,,0.00,WUHU216HW,2013-07-10 06:17:00,
2013-07-10 02:22:00,70.2,11.1,29.92,NW,315,0.0,0.0,1,0.00,,,0.00,WUHU216HW,2013-07-10 06:22:00,
2013-07-10 02:27:00,70.0,11.0,29.91,NW,315,0.0,0.0,1,0.00,,,0.00,WUHU216HW,2013-07-10 06:27:00,
2013-07-10 02:32:00,70.2,11.1,29.91,NW,315,0.0,0.0,1,0.00,,,0.00,WUHU216HW,2013-07-10 06:32:00,
2013-07-10 02:37:00,70.2,11.1,29.91,NW,315,0.0,0.0,1,0.00,,,0.00,WUHU216HW,2013-07-10 06:37:00,
2013-07-10 02:42:00,70.2,11.1,29.91,NW,315,0.0,0.0,1,0.00,,,0.00,WUHU216HW,2013-07-10 06:42:00,
2013-07-10 02:47:00,70.4,11.3,29.91,NW,315,0.0,0.0,1,0.00,,,0.00,WUHU216HW,2013-07-10 06:47:00,
2013-07-10 02:52:00,70.6,11.3,29.91,NW,315,0.0,0.2,1,0.00,,,0.00,WUHU216HW,2013-07-10 06:52:00,
2013-07-10 02:57:00,70.6,11.3,29.91,NW,315,0.9,0.9,1,0.00,,,0.00,WUHU216HW,2013-07-10 06:57:00,
2013-07-10 03:02:00,70.6,11.3,29.91,SE,135,0.4,0.9,1,0.00,,,0.00,WUHU216HW,2013-07-10 07:02:00,
2013-07-10 03:07:00,70.7,11.5,29.91,SSW,203,0.7,0.9,1,0.00,,,0.00,WUHU216HW,2013-07-10 07:07:00,
2013-07-10 03:12:00,70.7,11.5,29.91,SSW,203,0.7,0.9,1,0.00,,,0.00,WUHU216HW,2013-07-10 07:12:00,
2013-07-10 03:17:00,70.9,11.7,29.90,SSW,203,0.9,0.9,1,0.00,,,0.00,WUHU216HW,2013-07-10 07:17:00,
2013-07-10 03:22:00,70.9,11.7,29.90,SSW,203,0.0,1.1,1,0.00,,,0.00,WUHU216HW,2013-07-10 07:22:00,
2013-07-10 03:27:00,70.9,11.7,29.90,SSW,203,0.7,1.1,1,0.00,,,0.00,WUHU216HW,2013-07-10 07:27:00,
2013-07-10 03:32:00,70.9,11.7,29.90,South,180,1.1,1.1,1,0.00,,,0.00,WUHU216HW,2013-07-10 07:32:00,
2013-07-10 03:37:00,70.9,11.7,29.89,SSW,203,0.9,1.1,1,0.00,,,0.00,WUHU216HW,2013-07-10 07:37:00,
2013-07-10 03:42:00,70.9,11.7,29.90,SSW,203,0.0,0.9,1,0.00,,,0.00,WUHU216HW,2013-07-10 07:42:00,
2013-07-10 03:47:00,70.9,11.7,29.89,SSW,203,0.4,0.9,1,0.00,,,0.00,WUHU216HW,2013-07-10 07:47:00,
2013-07-10 03:52:00,70.9,11.7,29.90,SSW,203,0.0,0.4,1,0.00,,,0.00,WUHU216HW,2013-07-10 07:52:00,
2013-07-10 03:57:00,70.6,11.3,29.90,SSW,203,0.4,0.4,1,0.00,,,0.00,WUHU216HW,2013-07-10 07:57:00,
2013-07-10 04:02:00,70.6,11.3,29.90,SSW,203,0.4,1.1,1,0.00,,,0.00,WUHU216HW,2013-07-10 08:02:00,
2013-07-10 04:07:00,70.7,11.5,29.90,SSW,203,0.0,1.1,1,0.00,,,0.00,WUHU216HW,2013-07-10 08:07:00,
2013-07-10 04:12:00,70.7,11.5,29.90,SSW,203,0.0,0.4,1,0.00,,,0.00,WUHU216HW,2013-07-10 08:12:00,
2013-07-10 04:17:00,70.7,11.5,29.90,SSW,203,0.0,0.0,1,0.00,,,0.00,WUHU216HW,2013-07-10 08:17:00,
2013-07-10 04:22:00,70.7,11.5,29.90,SSW,203,0.0,0.0,1,0.00,,,0.00,WUHU216HW,2013-07-10 08:22:00,
2013-07-10 04:27:00,70.7,11.5,29.90,SSW,203,0.0,0.0,1,0.00,,,0.00,WUHU216HW,2013-07-10 08:27:00,
2013-07-10 04:32:00,70.7,11.5,29.89,SSW,203,0.0,0.0,1,0.00,,,0.00,WUHU216HW,2013-07-10 08:32:00,
2013-07-10 04:37:00,70.7,11.5,29.89,SSW,203,0.0,0.2,1,0.00,,,0.00,WUHU216HW,2013-07-10 08:37:00,
2013-07-10 04:42:00,70.6,11.3,29.90,SSW,203,0.0,0.2,1,0.00,,,0.00,WUHU216HW,2013-07-10 08:42:00,
2013-07-10 04:47:00,70.6,11.3,29.89,SSW,203,0.0,0.0,1,0.00,,,0.00,WUHU216HW,2013-07-10 08:47:00,
2013-07-10 04:52:00,70.4,11.3,29.90,SSW,203,0.0,0.0,1,0.00,,,0.00,WUHU216HW,2013-07-10 08:52:00,
2013-07-10 04:57:00,70.2,11.1,29.90,SSW,203,0.0,0.0,1,0.00,,,0.00,WUHU216HW,2013-07-10 08:57:00,
2013-07-10 05:02:00,70.2,11.1,29.90,SSW,203,0.0,0.0,1,0.00,,,0.00,WUHU216HW,2013-07-10 09:02:00,
2013-07-10 05:07:00,70.0,11.0,29.90,SSW,203,0.0,0.0,1,0.00,,,0.00,WUHU216HW,2013-07-10 09:07:00,
2013-07-10 05:12:00,70.0,11.0,29.90,SSW,203,0.0,0.4,1,0.00,,,0.00,WUHU216HW,2013-07-10 09:12:00,
2013-07-10 05:17:00,69.8,10.8,29.90,SSW,203,0.4,0.4,1,0.00,,,0.00,WUHU216HW,2013-07-10 09:17:00,
2013-07-10 05:22:00,69.8,10.8,29.90,SE,135,1.1,1.1,1,0.00,,,0.00,WUHU216HW,2013-07-10 09:22:00,
2013-07-10 05:27:00,69.7,10.7,29.90,SW,225,1.1,1.1,1,0.00,,,0.00,WUHU216HW,2013-07-10 09:27:00,
2013-07-10 05:32:00,69.7,10.7,29.90,SW,225,1.1,2.2,1,0.00,,,0.00,WUHU216HW,2013-07-10 09:32:00,
2013-07-10 05:37:00,69.7,10.7,29.90,SSW,203,1.1,2.2,1,0.00,,,0.00,WUHU216HW,2013-07-10 09:37:00,
2013-07-10 05:42:00,69.8,10.8,29.90,SSW,203,2.5,2.5,1,0.00,,,0.00,WUHU216HW,2013-07-10 09:42:00,
2013-07-10 05:47:00,69.8,10.8,29.90,SW,225,1.1,2.5,1,0.00,,,0.00,WUHU216HW,2013-07-10 09:47:00,
2013-07-10 05:52:00,69.8,10.8,29.90,SW,225,1.6,2.5,1,0.00,,,0.00,WUHU216HW,2013-07-10 09:52:00,
2013-07-10 05:57:00,70.0,11.0,29.90,WSW,248,0.2,1.8,1,0.00,,,0.00,WUHU216HW,2013-07-10 09:57:00,
2013-07-10 06:02:00,70.0,11.0,29.90,WSW,248,0.9,1.6,1,0.00,,,0.00,WUHU216HW,2013-07-10 10:02:00,
2013-07-10 06:07:00,70.2,11.1,29.90,WSW,248,0.0,1.3,1,0.00,,,0.00,WUHU216HW,2013-07-10 10:07:00,
2013-07-10 06:12:00,70.6,11.3,29.90,WSW,248,0.4,1.3,1,0.00,,,0.00,WUHU216HW,2013-07-10 10:12:00,
2013-07-10 06:17:00,70.6,11.3,29.90,WSW,248,1.1,1.1,1,0.00,,,0.00,WUHU216HW,2013-07-10 10:17:00,
2013-07-10 06:22:00,70.7,11.5,29.90,SW,225,0.0,1.3,1,0.00,,,0.00,WUHU216HW,2013-07-10 10:22:00,
2013-07-10 06:27:00,70.9,11.7,29.90,SW,225,1.1,1.3,1,0.00,,,0.00,WUHU216HW,2013-07-10 10:27:00,
2013-07-10 06:32:00,70.9,11.7,29.90,SW,225,0.0,1.3,1,0.00,,,0.00,WUHU216HW,2013-07-10 10:32:00,
2013-07-10 06:37:00,71.3,12.0,29.90,SSW,203,1.3,1.3,1,0.00,,,0.00,WUHU216HW,2013-07-10 10:37:00,
2013-07-10 06:42:00,71.5,12.1,29.89,SSW,203,0.0,1.3,1,0.00,,,0.00,WUHU216HW,2013-07-10 10:42:00,
2013-07-10 06:47:00,72.0,12.5,29.89,SE,135,2.0,2.0,1,0.00,,,0.00,WUHU216HW,2013-07-10 10:47:00,
2013-07-10 06:52:00,73.3,13.5,29.89,SSW,203,0.4,2.0,1,0.00,,,0.00,WUHU216HW,2013-07-10 10:52:00,
2013-07-10 06:57:00,74.3,14.3,29.89,SSW,203,0.0,2.0,1,0.00,,,0.00,WUHU216HW,2013-07-10 10:57:00,
2013-07-10 07:02:00,76.1,15.7,29.89,SSW,203,0.4,1.1,1,0.00,,,0.00,WUHU216HW,2013-07-10 11:02:00,
2013-07-10 07:07:00,77.4,16.7,29.89,SSW,203,0.0,1.1,1,0.00,,,0.00,WUHU216HW,2013-07-10 11:07:00,
2013-07-10 07:12:00,78.1,17.1,29.89,ESE,113,0.4,1.1,1,0.00,,,0.00,WUHU216HW,2013-07-10 11:12:00,
2013-07-10 07:17:00,78.8,17.6,29.89,SW,225,0.4,1.1,1,0.00,,,0.00,WUHU216HW,2013-07-10 11:17:00,
2013-07-10 07:22:00,79.2,17.9,29.89,SW,225,0.2,0.4,1,0.00,,,0.00,WUHU216HW,2013-07-10 11:22:00,
2013-07-10 07:27:00,81.4,19.6,29.89,WSW,248,1.1,1.3,1,0.00,,,0.00,WUHU216HW,2013-07-10 11:27:00,
2013-07-10 07:32:00,82.6,20.6,29.89,SW,225,1.1,1.8,1,0.00,,,0.00,WUHU216HW,2013-07-10 11:32:00,
2013-07-10 07:37:00,83.0,20.9,29.89,WSW,248,0.4,1.8,1,0.00,,,0.00,WUHU216HW,2013-07-10 11:37:00,
2013-07-10 07:42:00,83.3,21.2,29.88,SSW,203,1.6,2.0,1,0.00,,,0.00,WUHU216HW,2013-07-10 11:42:00,
2013-07-10 07:47:00,83.9,21.5,29.89,SSE,158,1.1,2.7,1,0.00,,,0.00,WUHU216HW,2013-07-10 11:47:00,
2013-07-10 07:52:00,84.8,22.2,29.89,SW,225,1.1,2.7,1,0.00,,,0.00,WUHU216HW,2013-07-10 11:52:00,
2013-07-10 07:57:00,85.3,22.7,29.89,SSW,203,1.8,1.8,1,0.00,,,0.00,WUHU216HW,2013-07-10 11:57:00,
2013-07-10 08:02:00,85.7,23.0,29.89,SE,135,1.6,1.8,1,0.00,,,0.00,WUHU216HW,2013-07-10 12:02:00,
2013-07-10 08:07:00,86.0,23.2,29.89,SSE,158,1.6,2.0,1,0.00,,,0.00,WUHU216HW,2013-07-10 12:07:00,
2013-07-10 08:12:00,86.9,23.9,29.88,ESE,113,1.1,2.0,1,0.00,,,0.00,WUHU216HW,2013-07-10 12:12:00,
2013-07-10 08:17:00,87.5,24.4,29.89,South,180,1.8,1.8,1,0.00,,,0.00,WUHU216HW,2013-07-10 12:17:00,
2013-07-10 08:22:00,87.7,24.5,29.89,SSW,203,1.3,2.5,1,0.00,,,0.00,WUHU216HW,2013-07-10 12:22:00,
2013-07-10 08:27:00,87.3,24.2,29.89,SE,135,1.1,2.5,1,0.00,,,0.00,WUHU216HW,2013-07-10 12:27:00,
2013-07-10 08:32:00,85.7,23.0,29.89,South,180,1.8,2.2,1,0.00,,,0.00,WUHU216HW,2013-07-10 12:32:00,
2013-07-10 08:37:00,84.2,21.8,29.89,SW,225,1.8,2.0,1,0.00,,,0.00,WUHU216HW,2013-07-10 12:37:00,
2013-07-10 08:42:00,82.8,20.8,29.89,SSW,203,1.3,4.0,1,0.00,,,0.00,WUHU216HW,2013-07-10 12:42:00,
2013-07-10 08:47:00,81.9,20.1,29.89,SSE,158,1.8,4.0,1,0.00,,,0.00,WUHU216HW,2013-07-10 12:47:00,
2013-07-10 08:52:00,80.6,19.1,29.89,SW,225,2.0,3.4,1,0.00,,,0.00,WUHU216HW,2013-07-10 12:52:00,
2013-07-10 08:58:00,79.7,18.4,29.89,SW,225,2.7,3.4,1,0.00,,,0.00,WUHU216HW,2013-07-10 12:58:00,
2013-07-10 09:03:00,79.6,18.2,29.88,SW,225,2.2,3.8,1,0.00,,,0.00,WUHU216HW,2013-07-10 13:03:00,
2013-07-10 09:08:00,79.4,18.1,29.88,SW,225,1.6,3.8,1,0.00,,,0.00,WUHU216HW,2013-07-10 13:08:00,
2013-07-10 09:13:00,79.6,18.2,29.88,SSE,158,1.1,2.9,1,0.00,,,0.00,WUHU216HW,2013-07-10 13:13:00,
2013-07-10 09:18:00,80.1,18.6,29.88,South,180,1.1,2.9,1,0.00,,,0.00,WUHU216HW,2013-07-10 13:18:00,
2013-07-10 09:23:00,80.5,18.9,29.87,South,180,2.0,2.5,1,0.00,,,0.00,WUHU216HW,2013-07-10 13:23:00,
2013-07-10 09:28:00,80.5,18.9,29.87,SSW,203,1.1,2.0,1,0.00,,,0.00,WUHU216HW,2013-07-10 13:28:00,
2013-07-10 09:33:00,80.1,18.6,29.87,WSW,248,2.5,2.5,1,0.00,,,0.00,WUHU216HW,2013-07-10 13:33:00,
2013-07-10 09:38:00,79.7,18.4,29.87,SW,225,1.3,2.5,1,0.00,,,0.00,WUHU216HW,2013-07-10 13:38:00,
2013-07-10 09:43:00,79.6,18.2,29.87,SW,225,1.1,2.2,1,0.00,,,0.00,WUHU216HW,2013-07-10 13:43:00,
2013-07-10 09:48:00,79.7,18.4,29.87,SSW,203,2.0,2.0,1,0.00,,,0.00,WUHU216HW,2013-07-10 13:48:00,
2013-07-10 09:53:00,79.4,18.1,29.87,SW,225,1.8,2.0,1,0.00,,,0.00,WUHU216HW,2013-07-10 13:53:00,
2013-07-10 09:58:00,79.6,18.2,29.87,SW,225,2.5,2.5,1,0.00,,,0.00,WUHU216HW,2013-07-10 13:58:00,
2013-07-10 10:03:00,80.3,18.8,29.87,WSW,248,2.5,2.5,1,0.00,,,0.00,WUHU216HW,2013-07-10 14:03:00,
2013-07-10 10:08:00,80.8,19.3,29.87,WSW,248,2.9,2.9,1,0.00,,,0.00,WUHU216HW,2013-07-10 14:08:00,
2013-07-10 10:13:00,80.8,19.3,29.87,SE,135,1.1,3.4,1,0.00,,,0.00,WUHU216HW,2013-07-10 14:13:00,
2013-07-10 10:18:00,81.5,19.8,29.86,SSW,203,2.0,3.4,1,0.00,,,0.00,WUHU216HW,2013-07-10 14:18:00,
2013-07-10 10:23:00,81.9,20.1,29.86,SW,225,1.1,2.5,1,0.00,,,0.00,WUHU216HW,2013-07-10 14:23:00,
2013-07-10 10:28:00,82.3,20.3,29.86,SSW,203,1.3,2.5,1,0.00,,,0.00,WUHU216HW,2013-07-10 14:28:00,
2013-07-10 10:33:00,82.6,20.6,29.86,NW,315,0.9,2.2,1,0.00,,,0.00,WUHU216HW,2013-07-10 14:33:00,
2013-07-10 10:38:00,82.4,20.5,29.86,SSW,203,1.1,1.8,1,0.00,,,0.00,WUHU216HW,2013-07-10 14:38:00,
2013-07-10 10:43:00,83.2,21.1,29.86,SW,225,2.7,2.7,1,0.00,,,0.00,WUHU216HW,2013-07-10 14:43:00,
2013-07-10 10:48:00,83.5,21.2,29.86,SE,135,1.6,2.7,1,0.00,,,0.00,WUHU216HW,2013-07-10 14:48:00,
2013-07-10 10:53:00,83.7,21.4,29.86,South,180,2.7,2.7,1,0.00,,,0.00,WUHU216HW,2013-07-10 14:53:00,
2013-07-10 10:58:00,83.5,21.2,29.86,SSE,158,1.3,2.7,1,0.00,,,0.00,WUHU216HW,2013-07-10 14:58:00,
2013-07-10 11:03:00,84.6,22.1,29.86,SE,135,3.4,3.4,1,0.00,,,0.00,WUHU216HW,2013-07-10 15:03:00,
2013-07-10 11:08:00,85.7,23.0,29.85,SW,225,1.8,3.6,1,0.00,,,0.00,WUHU216HW,2013-07-10 15:08:00,
2013-07-10 11:13:00,86.6,23.7,29.85,SW,225,2.9,4.7,1,0.00,,,0.00,WUHU216HW,2013-07-10 15:13:00,
2013-07-10 11:18:00,86.8,23.8,29.85,SE,135,3.4,4.7,1,0.00,,,0.00,WUHU216HW,2013-07-10 15:18:00,
2013-07-10 11:23:00,86.4,23.5,29.85,SE,135,4.0,4.7,1,0.00,,,0.00,WUHU216HW,2013-07-10 15:23:00,
2013-07-10 11:28:00,86.0,23.2,29.85,SSW,203,2.9,6.3,1,0.00,,,0.00,WUHU216HW,2013-07-10 15:28:00,
2013-07-10 11:33:00,86.8,23.8,29.85,SE,135,2.9,6.3,1,0.00,,,0.00,WUHU216HW,2013-07-10 15:33:00,
2013-07-10 11:38:00,86.9,23.9,29.84,SW,225,2.5,4.7,1,0.00,,,0.00,WUHU216HW,2013-07-10 15:38:00,
2013-07-10 11:43:00,87.3,24.2,29.84,SSE,158,1.3,4.7,1,0.00,,,0.00,WUHU216HW,2013-07-10 15:43:00,
2013-07-10 11:48:00,86.8,23.8,29.84,SE,135,5.8,5.8,1,0.00,,,0.00,WUHU216HW,2013-07-10 15:48:00,
2013-07-10 11:53:00,86.9,23.9,29.84,ENE,68,2.9,5.8,1,0.00,,,0.00,WUHU216HW,2013-07-10 15:53:00,
2013-07-10 11:58:00,87.5,24.4,29.84,SE,135,6.7,6.7,1,0.00,,,0.00,WUHU216HW,2013-07-10 15:58:00,
2013-07-10 12:03:00,86.6,23.7,29.83,South,180,3.6,6.7,1,0.00,,,0.00,WUHU216HW,2013-07-10 16:03:00,
2013-07-10 12:08:00,85.1,22.5,29.84,SSW,203,1.6,3.6,1,0.00,,,0.00,WUHU216HW,2013-07-10 16:08:00,
2013-07-10 12:13:00,84.2,21.8,29.83,SW,225,2.7,2.7,1,0.00,,,0.00,WUHU216HW,2013-07-10 16:13:00,
2013-07-10 12:18:00,84.1,21.7,29.83,SW,225,2.7,3.4,1,0.00,,,0.00,WUHU216HW,2013-07-10 16:18:00,
2013-07-10 12:23:00,84.4,22.0,29.83,SW,225,2.7,5.6,1,0.00,,,0.00,WUHU216HW,2013-07-10 16:23:00,
2013-07-10 12:28:00,85.7,23.0,29.82,West,270,2.7,5.6,1,0.00,,,0.00,WUHU216HW,2013-07-10 16:28:00,
2013-07-10 12:33:00,87.3,24.2,29.82,SSW,203,2.5,2.7,1,0.00,,,0.00,WUHU216HW,2013-07-10 16:33:00,
2013-07-10 12:38:00,87.5,24.4,29.81,SSE,158,2.5,3.8,1,0.00,,,0.00,WUHU216HW,2013-07-10 16:38:00,
2013-07-10 12:43:00,87.3,24.2,29.81,SE,135,1.8,4.0,1,0.00,,,0.00,WUHU216HW,2013-07-10 16:43:00,
2013-07-10 12:48:00,85.7,23.0,29.81,SSW,203,7.4,7.4,1,0.00,,,0.00,WUHU216HW,2013-07-10 16:48:00,
2013-07-10 12:53:00,83.2,21.1,29.82,SSE,158,4.5,7.4,1,0.00,,,0.00,WUHU216HW,2013-07-10 16:53:00,
2013-07-10 12:58:00,80.3,18.8,29.82,NNW,338,0.9,7.8,1,0.00,,,0.00,WUHU216HW,2013-07-10 16:58:00,
2013-07-10 13:03:00,78.3,17.3,29.82,SW,225,1.1,7.8,1,0.00,,,0.00,WUHU216HW,2013-07-10 17:03:00,
2013-07-10 13:08:00,78.1,17.1,29.82,SW,225,1.1,1.1,1,0.00,,,0.00,WUHU216HW,2013-07-10 17:08:00,
2013-07-10 13:13:00,80.1,18.6,29.81,SSW,203,2.5,2.5,1,0.00,,,0.00,WUHU216HW,2013-07-10 17:13:00,
2013-07-10 13:18:00,81.5,19.8,29.81,South,180,1.8,4.0,1,0.00,,,0.00,WUHU216HW,2013-07-10 17:18:00,
2013-07-10 13:23:00,82.4,20.5,29.81,WSW,248,3.8,4.0,1,0.00,,,0.00,WUHU216HW,2013-07-10 17:23:00,
2013-07-10 13:28:00,82.4,20.5,29.81,South,180,0.9,4.0,1,0.00,,,0.00,WUHU216HW,2013-07-10 17:28:00,
2013-07-10 13:33:00,83.0,20.9,29.80,WSW,248,2.5,4.0,1,0.00,,,0.00,WUHU216HW,2013-07-10 17:33:00,
2013-07-10 13:38:00,83.9,21.5,29.80,SSE,158,2.5,4.9,1,0.00,,,0.00,WUHU216HW,2013-07-10 17:38:00,
2013-07-10 13:43:00,84.6,22.1,29.80,SE,135,4.7,4.9,1,0.00,,,0.00,WUHU216HW,2013-07-10 17:43:00,
2013-07-10 13:48:00,84.8,22.2,29.79,SSW,203,3.1,4.7,1,0.00,,,0.00,WUHU216HW,2013-07-10 17:48:00,
2013-07-10 13:53:00,84.2,21.8,29.79,SW,225,2.9,4.7,1,0.00,,,0.00,WUHU216HW,2013-07-10 17:53:00,
2013-07-10 13:58:00,84.2,21.8,29.79,SSW,203,2.5,4.0,1,0.00,,,0.00,WUHU216HW,2013-07-10 17:58:00,
2013-07-10 14:03:00,85.1,22.5,29.79,SSW,203,1.8,3.6,1,0.00,,,0.00,WUHU216HW,2013-07-10 18:03:00,
2013-07-10 14:08:00,85.5,22.8,29.79,SW,225,2.0,3.6,1,0.00,,,0.00,WUHU216HW,2013-07-10 18:08:00,
2013-07-10 14:13:00,85.7,23.0,29.79,SSE,158,2.7,3.1,1,0.00,,,0.00,WUHU216HW,2013-07-10 18:13:00,
2013-07-10 14:18:00,85.9,23.0,29.78,South,180,2.9,3.1,1,0.00,,,0.00,WUHU216HW,2013-07-10 18:18:00,
2013-07-10 14:23:00,85.9,23.0,29.78,South,180,2.5,4.7,1,0.00,,,0.00,WUHU216HW,2013-07-10 18:23:00,
2013-07-10 14:28:00,84.8,22.2,29.78,SSW,203,2.2,4.7,1,0.00,,,0.00,WUHU216HW,2013-07-10 18:28:00,
2013-07-10 14:33:00,83.9,21.5,29.79,SSW,203,1.8,4.0,1,0.00,,,0.00,WUHU216HW,2013-07-10 18:33:00,
2013-07-10 14:38:00,83.2,21.1,29.80,SW,225,1.6,4.0,1,0.00,,,0.00,WUHU216HW,2013-07-10 18:38:00,
2013-07-10 14:43:00,79.9,18.6,29.79,WSW,248,0.9,2.5,1,0.00,,,0.00,WUHU216HW,2013-07-10 18:43:00,
2013-07-10 14:48:00,78.3,17.3,29.79,WSW,248,0.2,1.3,1,0.00,,,0.00,WUHU216HW,2013-07-10 18:48:00,
2013-07-10 14:53:00,77.2,16.5,29.78,WSW,248,0.0,1.3,1,0.00,,,0.00,WUHU216HW,2013-07-10 18:53:00,
2013-07-10 14:58:00,77.0,16.4,29.78,WSW,248,0.0,0.4,1,0.00,,,0.00,WUHU216HW,2013-07-10 18:58:00,
2013-07-10 15:03:00,77.4,16.7,29.77,SSE,158,0.9,1.8,1,0.00,,,0.00,WUHU216HW,2013-07-10 19:03:00,
2013-07-10 15:08:00,78.7,17.6,29.77,SW,225,1.1,1.8,1,0.00,,,0.00,WUHU216HW,2013-07-10 19:08:00,
2013-07-10 15:13:00,80.6,19.1,29.77,SSW,203,1.1,1.8,1,0.00,,,0.00,WUHU216HW,2013-07-10 19:13:00,
2013-07-10 15:18:00,82.4,20.5,29.77,SSW,203,1.8,2.0,1,0.00,,,0.00,WUHU216HW,2013-07-10 19:18:00,
2013-07-10 15:23:00,82.6,20.6,29.77,SW,225,2.5,2.5,1,0.00,,,0.00,WUHU216HW,2013-07-10 19:23:00,
2013-07-10 15:28:00,81.5,19.8,29.77,South,180,0.2,2.5,1,0.00,,,0.00,WUHU216HW,2013-07-10 19:28:00,
2013-07-10 15:33:00,81.9,20.1,29.77,SSW,203,1.8,2.5,1,0.00,,,0.00,WUHU216HW,2013-07-10 19:33:00,
2013-07-10 15:38:00,82.3,20.3,29.77,SW,225,2.7,3.6,1,0.00,,,0.00,WUHU216HW,2013-07-10 19:38:00,
2013-07-10 15:43:00,82.4,20.5,29.76,SSW,203,1.8,4.0,1,0.00,,,0.00,WUHU216HW,2013-07-10 19:43:00,
2013-07-10 15:48:00,82.4,20.5,29.76,SSW,203,1.1,4.0,1,0.00,,,0.00,WUHU216HW,2013-07-10 19:48:00,
2013-07-10 15:54:00,82.1,20.3,29.76,South,180,1.6,5.1,1,0.00,,,0.00,WUHU216HW,2013-07-10 19:54:00,
2013-07-10 15:59:00,81.9,20.1,29.76,SSW,203,3.6,5.1,1,0.00,,,0.00,WUHU216HW,2013-07-10 19:59:00,
2013-07-10 16:04:00,82.1,20.3,29.76,SSE,158,2.0,3.6,1,0.00,,,0.00,WUHU216HW,2013-07-10 20:04:00,
2013-07-10 16:09:00,82.6,20.6,29.76,SE,135,3.8,3.8,1,0.00,,,0.00,WUHU216HW,2013-07-10 20:09:00,
2013-07-10 16:14:00,83.2,21.1,29.76,WSW,248,1.8,3.8,1,0.00,,,0.00,WUHU216HW,2013-07-10 20:14:00,
2013-07-10 16:19:00,83.5,21.2,29.76,WSW,248,1.8,4.0,1,0.00,,,0.00,WUHU216HW,2013-07-10 20:19:00,
2013-07-10 16:24:00,83.3,21.2,29.76,WSW,248,0.9,4.0,1,0.00,,,0.00,WUHU216HW,2013-07-10 20:24:00,
2013-07-10 16:29:00,83.3,21.2,29.75,SW,225,3.1,3.1,1,0.00,,,0.00,WUHU216HW,2013-07-10 20:29:00,
2013-07-10 16:34:00,83.2,21.1,29.75,SSW,203,2.0,3.1,1,0.00,,,0.00,WUHU216HW,2013-07-10 20:34:00,
2013-07-10 16:39:00,83.0,20.9,29.75,SW,225,1.6,3.8,1,0.00,,,0.00,WUHU216HW,2013-07-10 20:39:00,
2013-07-10 16:44:00,82.8,20.8,29.75,South,180,1.3,3.8,1,0.00,,,0.00,WUHU216HW,2013-07-10 20:44:00,
2013-07-10 16:49:00,82.8,20.8,29.75,SSW,203,1.8,2.2,1,0.00,,,0.00,WUHU216HW,2013-07-10 20:49:00,
2013-07-10 16:54:00,82.8,20.8,29.74,ESE,113,0.4,2.0,1,0.00,,,0.00,WUHU216HW,2013-07-10 20:54:00,
2013-07-10 16:59:00,82.4,20.5,29.74,South,180,1.1,2.0,1,0.00,,,0.00,WUHU216HW,2013-07-10 20:59:00,
2013-07-10 17:04:00,82.6,20.6,29.74,SW,225,2.7,2.7,1,0.00,,,0.00,WUHU216HW,2013-07-10 21:04:00,
2013-07-10 17:09:00,82.8,20.8,29.74,SW,225,1.8,5.1,1,0.00,,,0.00,WUHU216HW,2013-07-10 21:09:00,
2013-07-10 17:14:00,82.8,20.8,29.74,SSE,158,3.4,5.1,1,0.00,,,0.00,WUHU216HW,2013-07-10 21:14:00,
2013-07-10 17:19:00,82.6,20.6,29.74,South,180,2.2,3.4,1,0.00,,,0.00,WUHU216HW,2013-07-10 21:19:00,
2013-07-10 17:24:00,82.3,20.3,29.73,SSW,203,1.8,6.0,1,0.00,,,0.00,WUHU216HW,2013-07-10 21:24:00,
2013-07-10 17:29:00,82.4,20.5,29.73,SSW,203,0.7,6.0,1,0.00,,,0.00,WUHU216HW,2013-07-10 21:29:00,
2013-07-10 17:34:00,82.4,20.5,29.73,SW,225,2.5,4.0,1,0.00,,,0.00,WUHU216HW,2013-07-10 21:34:00,
2013-07-10 17:39:00,82.3,20.3,29.73,SSW,203,0.7,3.4,1,0.00,,,0.00,WUHU216HW,2013-07-10 21:39:00,
2013-07-10 17:44:00,82.1,20.3,29.73,SSW,203,2.5,3.4,1,0.00,,,0.00,WUHU216HW,2013-07-10 21:44:00,
2013-07-10 17:49:00,81.9,20.1,29.73,SW,225,1.6,4.0,1,0.00,,,0.00,WUHU216HW,2013-07-10 21:49:00,
2013-07-10 17:54:00,81.7,20.0,29.73,SSE,158,1.8,5.4,1,0.00,,,0.00,WUHU216HW,2013-07-10 21:54:00,
2013-07-10 17:59:00,81.7,20.0,29.73,SSE,158,1.8,5.4,1,0.00,,,0.00,WUHU216HW,2013-07-10 21:59:00,
2013-07-10 18:04:00,80.6,19.1,29.73,SE,135,2.9,2.9,1,0.00,,,0.00,WUHU216HW,2013-07-10 22:04:00,
2013-07-10 18:09:00,80.5,18.9,29.73,SW,225,0.0,2.9,1,0.00,,,0.00,WUHU216HW,2013-07-10 22:09:00,
2013-07-10 18:14:00,80.1,18.6,29.73,SSW,203,1.3,1.8,1,0.00,,,0.00,WUHU216HW,2013-07-10 22:14:00,
2013-07-10 18:19:00,80.3,18.8,29.73,SSW,203,1.3,1.8,1,0.00,,,0.00,WUHU216HW,2013-07-10 22:19:00,
2013-07-10 18:24:00,80.3,18.8,29.73,WSW,248,1.3,4.0,1,0.00,,,0.00,WUHU216HW,2013-07-10 22:24:00,
2013-07-10 18:29:00,80.3,18.8,29.73,SE,135,1.3,4.0,1,0.00,,,0.00,WUHU216HW,2013-07-10 22:29:00,
2013-07-10 18:34:00,80.3,18.8,29.73,SSE,158,1.8,2.0,1,0.00,,,0.00,WUHU216HW,2013-07-10 22:34:00,
2013-07-10 18:39:00,80.1,18.6,29.73,South,180,2.5,2.5,1,0.00,,,0.00,WUHU216HW,2013-07-10 22:39:00,
2013-07-10 18:44:00,79.9,18.6,29.74,SSE,158,0.2,2.5,1,0.00,,,0.00,WUHU216HW,2013-07-10 22:44:00,
2013-07-10 18:49:00,79.9,18.6,29.75,SSW,203,0.7,2.5,1,0.00,,,0.00,WUHU216HW,2013-07-10 22:49:00,
2013-07-10 18:54:00,79.6,18.2,29.75,SSW,203,0.4,1.1,1,0.00,,,0.00,WUHU216HW,2013-07-10 22:54:00,
2013-07-10 18:59:00,79.4,18.1,29.75,SSW,203,1.1,1.8,1,0.00,,,0.00,WUHU216HW,2013-07-10 22:59:00,
2013-07-10 19:04:00,79.2,17.9,29.75,SSW,203,1.3,1.8,1,0.00,,,0.00,WUHU216HW,2013-07-10 23:04:00,
2013-07-10 19:09:00,78.8,17.6,29.76,SSW,203,1.1,1.3,1,0.00,,,0.00,WUHU216HW,2013-07-10 23:09:00,
2013-07-10 19:14:00,78.7,17.6,29.76,SSE,158,1.1,1.3,1,0.00,,,0.00,WUHU216HW,2013-07-10 23:14:00,
2013-07-10 19:19:00,78.5,17.4,29.76,SSW,203,1.1,1.6,1,0.00,,,0.00,WUHU216HW,2013-07-10 23:19:00,
2013-07-10 19:24:00,78.3,17.3,29.76,SW,225,1.1,1.6,1,0.00,,,0.00,WUHU216HW,2013-07-10 23:24:00,
2013-07-10 19:29:00,78.3,17.3,29.76,SW,225,0.2,1.3,1,0.00,,,0.00,WUHU216HW,2013-07-10 23:29:00,
2013-07-10 19:34:00,78.1,17.1,29.76,ESE,113,1.6,1.6,1,0.00,,,0.00,WUHU216HW,2013-07-10 23:34:00,
2013-07-10 19:39:00,78.1,17.1,29.76,SSE,158,0.4,1.6,1,0.00,,,0.00,WUHU216HW,2013-07-10 23:39:00,
2013-07-10 19:44:00,78.1,17.1,29.76,SSW,203,1.1,1.1,1,0.00,,,0.00,WUHU216HW,2013-07-10 23:44:00,
2013-07-10 19:49:00,77.8,16.9,29.76,South,180,1.1,1.1,1,0.00,,,0.00,WUHU216HW,2013-07-10 23:49:00,
2013-07-10 19:54:00,77.6,16.7,29.76,South,180,0.4,1.1,1,0.00,,,0.00,WUHU216HW,2013-07-10 23:54:00,
2013-07-10 19:59:00,77.4,16.7,29.76,South,180,0.9,1.1,1,0.00,,,0.00,WUHU216HW,2013-07-10 23:59:00,
2013-07-10 20:04:00,77.2,16.5,29.76,South,180,0.7,0.9,1,0.00,,,0.00,WUHU216HW,2013-07-11 00:04:00,
2013-07-10 20:09:00,76.9,16.2,29.76,South,180,1.1,1.1,1,0.00,,,0.00,WUHU216HW,2013-07-11 00:09:00,
2013-07-10 20:14:00,76.7,16.1,29.76,South,180,0.0,1.1,1,0.00,,,0.00,WUHU216HW,2013-07-11 00:14:00,
2013-07-10 20:19:00,76.3,15.9,29.77,South,180,0.7,0.9,1,0.00,,,0.00,WUHU216HW,2013-07-11 00:19:00,
2013-07-10 20:24:00,76.0,15.5,29.76,South,180,0.0,0.7,1,0.00,,,0.00,WUHU216HW,2013-07-11 00:24:00,
2013-07-10 20:29:00,75.8,15.4,29.76,SSE,158,0.4,1.1,1,0.00,,,0.00,WUHU216HW,2013-07-11 00:29:00,
2013-07-10 20:34:00,75.8,15.4,29.76,SSE,158,0.2,1.1,1,0.00,,,0.00,WUHU216HW,2013-07-11 00:34:00,
2013-07-10 20:39:00,75.6,15.2,29.76,SSE,158,0.4,0.9,1,0.00,,,0.00,WUHU216HW,2013-07-11 00:39:00,
2013-07-10 20:44:00,75.2,14.9,29.76,SSE,158,1.1,1.1,1,0.00,,,0.00,WUHU216HW,2013-07-11 00:44:00,
2013-07-10 20:49:00,75.1,14.9,29.76,SSE,158,0.9,1.1,1,0.00,,,0.00,WUHU216HW,2013-07-11 00:49:00,
2013-07-10 20:54:00,74.7,14.6,29.76,SSE,158,0.0,1.1,1,0.00,,,0.00,WUHU216HW,2013-07-11 00:54:00,
2013-07-10 20:59:00,74.5,14.4,29.76,SSE,158,0.0,1.1,1,0.00,,,0.00,WUHU216HW,2013-07-11 00:59:00,
2013-07-10 21:04:00,74.2,14.2,29.76,SSE,158,0.0,0.0,1,0.00,,,0.00,WUHU216HW,2013-07-11 01:04:00,
2013-07-10 21:09:00,73.8,14.0,29.76,SSE,158,0.7,0.9,1,0.00,,,0.00,WUHU216HW,2013-07-11 01:09:00,
2013-07-10 21:14:00,73.6,13.8,29.76,SSE,158,0.0,0.9,1,0.00,,,0.00,WUHU216HW,2013-07-11 01:14:00,
2013-07-10 21:19:00,73.4,13.7,29.77,SSE,158,0.7,0.7,1,0.00,,,0.00,WUHU216HW,2013-07-11 01:19:00,
2013-07-10 21:24:00,73.3,13.5,29.77,SSE,158,0.9,1.1,1,0.00,,,0.00,WUHU216HW,2013-07-11 01:24:00,
2013-07-10 21:29:00,73.1,13.4,29.77,SSE,158,1.1,1.1,1,0.00,,,0.00,WUHU216HW,2013-07-11 01:29:00,
2013-07-10 21:34:00,73.1,13.4,29.78,South,180,1.1,1.1,1,0.00,,,0.00,WUHU216HW,2013-07-11 01:34:00,
2013-07-10 21:39:00,72.9,13.2,29.78,South,180,0.7,1.6,1,0.00,,,0.00,WUHU216HW,2013-07-11 01:39:00,
2013-07-10 21:44:00,72.9,13.2,29.78,South,180,1.1,1.6,1,0.00,,,0.00,WUHU216HW,2013-07-11 01:44:00,
2013-07-10 21:49:00,72.9,13.2,29.78,South,180,1.1,1.1,1,0.00,,,0.00,WUHU216HW,2013-07-11 01:49:00,
2013-07-10 21:54:00,72.9,13.2,29.78,South,180,0.0,1.1,1,0.00,,,0.00,WUHU216HW,2013-07-11 01:54:00,
2013-07-10 21:59:00,72.7,13.2,29.77,South,180,1.1,1.3,1,0.00,,,0.00,WUHU216HW,2013-07-11 01:59:00,
2013-07-10 22:04:00,72.7,13.2,29.77,South,180,0.4,1.3,1,0.00,,,0.00,WUHU216HW,2013-07-11 02:04:00,
2013-07-10 22:09:00,72.7,13.2,29.77,South,180,0.7,0.9,1,0.00,,,0.00,WUHU216HW,2013-07-11 02:09:00,
2013-07-10 22:14:00,72.5,13.0,29.77,South,180,0.4,1.1,1,0.00,,,0.00,WUHU216HW,2013-07-11 02:14:00,
2013-07-10 22:19:00,72.5,13.0,29.77,South,180,0.7,1.1,1,0.00,,,0.00,WUHU216HW,2013-07-11 02:19:00,
2013-07-10 22:24:00,72.4,12.8,29.77,South,180,1.3,1.6,1,0.00,,,0.00,WUHU216HW,2013-07-11 02:24:00,
2013-07-10 22:29:00,72.4,12.8,29.77,South,180,0.0,1.6,1,0.00,,,0.00,WUHU216HW,2013-07-11 02:29:00,
2013-07-10 22:34:00,72.4,12.8,29.77,South,180,0.0,1.3,1,0.00,,,0.00,WUHU216HW,2013-07-11 02:34:00,
2013-07-10 22:39:00,72.4,12.8,29.77,South,180,0.7,0.7,1,0.00,,,0.00,WUHU216HW,2013-07-11 02:39:00,
2013-07-10 22:44:00,72.2,12.7,29.77,SSW,203,0.4,1.3,1,0.00,,,0.00,WUHU216HW,2013-07-11 02:44:00,
2013-07-10 22:49:00,72.2,12.7,29.77,SSW,203,0.0,1.3,1,0.00,,,0.00,WUHU216HW,2013-07-11 02:49:00,
2013-07-10 22:54:00,72.2,12.7,29.77,South,180,0.4,0.7,1,0.00,,,0.00,WUHU216HW,2013-07-11 02:54:00,
2013-07-10 23:00:00,72.2,12.7,29.76,SE,135,0.4,0.9,1,0.00,,,0.00,WUHU216HW,2013-07-11 03:00:00,
2013-07-10 23:05:00,72.0,12.5,29.76,SE,135,0.0,0.9,1,0.00,,,0.00,WUHU216HW,2013-07-11 03:05:00,
2013-07-10 23:10:00,72.0,12.5,29.76,SE,135,0.0,0.0,1,0.00,,,0.00,WUHU216HW,2013-07-11 03:10:00,
2013-07-10 23:15:00,72.0,12.5,29.76,SE,135,0.0,0.0,1,0.00,,,0.00,WUHU216HW,2013-07-11 03:15:00,
2013-07-10 23:20:00,71.8,12.4,29.76,SE,135,0.0,0.0,1,0.00,,,0.00,WUHU216HW,2013-07-11 03:20:00,
2013-07-10 23:25:00,71.8,12.4,29.76,SE,135,0.0,0.0,1,0.00,,,0.00,WUHU216HW,2013-07-11 03:25:00,
2013-07-10 23:30:00,71.6,12.2,29.76,SE,135,0.0,0.0,1,0.00,,,0.00,WUHU216HW,2013-07-11 03:30:00,
2013-07-10 23:35:00,71.6,12.2,29.76,SE,135,0.0,0.0,1,0.00,,,0.00,WUHU216HW,2013-07-11 03:35:00,
2013-07-10 23:40:00,71.6,12.2,29.76,SE,135,0.0,0.0,1,0.00,,,0.00,WUHU216HW,2013-07-11 03:40:00,
2013-07-10 23:45:00,71.6,12.2,29.76,SE,135,0.0,0.0,1,0.00,,,0.00,WUHU216HW,2013-07-11 03:45:00,
2013-07-10 23:50:00,71.5,12.1,29.76,SE,135,0.0,0.0,1,0.00,,,0.00,WUHU216HW,2013-07-11 03:50:00,
2013-07-10 23:55:00,71.5,12.1,29.75,SE,135,0.7,0.7,1,0.00,,,0.00,WUHU216HW,2013-07-11 03:55:00,